Al Hamla — V7MX9 — position and weather

sailwx.info

Track history (hours):
 
Tides and Currents Weather Stations Pressure Air Temp Water Temp Dewpoint Dewpoint Depression Visibility Wind Speed Wind Dir Waves Ship Positions

Al Hamla

Last reported at 2017-Mar-18 08:27 UTC. Time now 2017-Mar-23 08:27 UTC.
Position N 01°59' E 102°13'.

Length 315 m; draft 9.7 m.

Type: Tanker. MMSI: 538002922.

Date/timePositionNaut miles runAvg speedWind from/ knotsBaromVisibWave heightAir tempDewpointWater temp
2017-Mar-18 08:27N 01°59' E 102°13'1617.7
2017-Mar-18 07:33N 01°52' E 102°28'6716.8
2017-Mar-18 03:33N 01°14' E 103°24'1717.5
2017-Mar-18 02:33N 01°10' E 103°41'1414.2
2017-Mar-18 01:33N 01°13' E 103°54'  
2017-Mar-11 16:33N 01°14' E 104°03'8 7.6
2017-Mar-11 15:33N 01°13' E 103°55'1313.4
2017-Mar-11 14:33N 01°06' E 103°44'1413.7
2017-Mar-11 13:33N 01°07' E 103°30'  
Track history (hours):
 
Tides and Currents Weather Stations Pressure Air Temp Water Temp Dewpoint Dewpoint Depression Visibility Wind Speed Wind Dir Waves Ship Positions

Al Hamla

Last reported at 2017-Mar-18 08:27 UTC. Time now 2017-Mar-23 08:27 UTC.
Position N 01°59' E 102°13'.

Length 315 m; draft 9.7 m.

Type: Tanker. MMSI: 538002922.

Date/timePositionNaut miles runAvg speedWind from/ knotsBaromVisibWave heightAir tempDewpointWater temp
2017-Mar-18 08:27N 01°59' E 102°13'1617.7
2017-Mar-18 07:33N 01°52' E 102°28'6716.8
2017-Mar-18 03:33N 01°14' E 103°24'1717.5
2017-Mar-18 02:33N 01°10' E 103°41'1414.2
2017-Mar-18 01:33N 01°13' E 103°54'  
2017-Mar-11 16:33N 01°14' E 104°03'8 7.6
2017-Mar-11 15:33N 01°13' E 103°55'1313.4
2017-Mar-11 14:33N 01°06' E 103°44'1413.7
2017-Mar-11 13:33N 01°07' E 103°30'  

Dump ship's entire track history